METAR = EDDE 180920Z 31011KT 280V340 9999 SCT022 12/06 Q1025 NOSIG

TAF = TAF TAF EDDE 180500Z 1806/1906 28010KT 9999 SCT020 TEMPO 1812/1816 30015G25KT

METAR EDDE Decoded:

STATION........ EDDE
OBSERVED....... Wed Sep 18, 11:20 MEST
NOW............ Wed Sep 18, 11:45 MEST
AGE............ 25 min ago
WIND........... NW at 20 km/h
VISIBILITY..... 16 miles
CLOUDS......... scattered clouds
TEMP........... 54°F (12°C)
DEWPT.......... 43°F (6°C)
HUMIDITY....... 67%
BAROMETER...... 1025 hPa (30.27 in Hg)


ICAO-Code: